sensor_id;sensor_type;location;lat;lon;timestamp;P1;durP1;ratioP1;P2;durP2;ratioP2
62258;SDS011;48241;48.824;10.102;2023-02-13T03:48:39;11.55;;;7.10;;
62258;SDS011;48241;48.824;10.102;2023-02-13T03:51:29;17.27;;;9.75;;
62258;SDS011;48241;48.824;10.102;2023-02-13T03:54:33;19.53;;;10.30;;
62258;SDS011;48241;48.824;10.102;2023-02-13T03:57:24;16.80;;;9.52;;
62258;SDS011;48241;48.824;10.102;2023-02-13T04:00:12;16.95;;;10.45;;
62258;SDS011;48241;48.824;10.102;2023-02-13T04:02:43;17.35;;;9.70;;
62258;SDS011;48241;48.824;10.102;2023-02-13T04:05:20;16.13;;;9.82;;
62258;SDS011;48241;48.824;10.102;2023-02-13T04:07:49;15.00;;;8.73;;
62258;SDS011;48241;48.824;10.102;2023-02-13T04:10:16;15.88;;;9.82;;
62258;SDS011;48241;48.824;10.102;2023-02-13T04:15:58;19.03;;;10.33;;
62258;SDS011;48241;48.824;10.102;2023-02-13T04:18:26;15.77;;;9.27;;
62258;SDS011;48241;48.824;10.102;2023-02-13T04:20:55;17.35;;;9.50;;
62258;SDS011;48241;48.824;10.102;2023-02-13T04:23:21;17.08;;;10.35;;
62258;SDS011;48241;48.824;10.102;2023-02-13T04:25:47;17.23;;;9.48;;
62258;SDS011;48241;48.824;10.102;2023-02-13T04:28:16;18.17;;;11.00;;
62258;SDS011;48241;48.824;10.102;2023-02-13T04:30:41;18.20;;;10.65;;
62258;SDS011;48241;48.824;10.102;2023-02-13T04:33:07;19.00;;;10.77;;
62258;SDS011;48241;48.824;10.102;2023-02-13T04:35:33;20.17;;;10.60;;
62258;SDS011;48241;48.824;10.102;2023-02-13T04:37:59;21.60;;;12.38;;
62258;SDS011;48241;48.824;10.102;2023-02-13T04:40:25;22.52;;;11.88;;
62258;SDS011;48241;48.824;10.102;2023-02-13T04:42:51;24.48;;;12.77;;
62258;SDS011;48241;48.824;10.102;2023-02-13T04:45:20;22.23;;;11.82;;
62258;SDS011;48241;48.824;10.102;2023-02-13T04:47:51;24.35;;;13.35;;
62258;SDS011;48241;48.824;10.102;2023-02-13T04:50:18;24.98;;;13.35;;
62258;SDS011;48241;48.824;10.102;2023-02-13T04:52:44;24.33;;;13.02;;
62258;SDS011;48241;48.824;10.102;2023-02-13T04:55:10;24.38;;;13.25;;
62258;SDS011;48241;48.824;10.102;2023-02-13T04:57:36;26.42;;;13.60;;
62258;SDS011;48241;48.824;10.102;2023-02-13T05:00:03;27.63;;;14.57;;
62258;SDS011;48241;48.824;10.102;2023-02-13T05:02:30;28.70;;;14.05;;
62258;SDS011;48241;48.824;10.102;2023-02-13T05:04:57;23.52;;;12.57;;
62258;SDS011;48241;48.824;10.102;2023-02-13T05:07:24;22.33;;;12.80;;
62258;SDS011;48241;48.824;10.102;2023-02-13T05:09:50;22.38;;;11.48;;
62258;SDS011;48241;48.824;10.102;2023-02-13T05:12:16;26.38;;;13.50;;
62258;SDS011;48241;48.824;10.102;2023-02-13T05:14:41;25.77;;;13.35;;
62258;SDS011;48241;48.824;10.102;2023-02-13T05:17:07;25.77;;;13.85;;
62258;SDS011;48241;48.824;10.102;2023-02-13T05:19:33;27.23;;;12.60;;
62258;SDS011;48241;48.824;10.102;2023-02-13T05:21:58;25.50;;;13.05;;
62258;SDS011;48241;48.824;10.102;2023-02-13T05:24:42;19.10;;;10.82;;
62258;SDS011;48241;48.824;10.102;2023-02-13T05:27:08;19.60;;;10.80;;
62258;SDS011;48241;48.824;10.102;2023-02-13T05:29:34;19.75;;;11.52;;
62258;SDS011;48241;48.824;10.102;2023-02-13T05:31:59;23.45;;;11.90;;
62258;SDS011;48241;48.824;10.102;2023-02-13T05:34:25;21.63;;;12.02;;
62258;SDS011;48241;48.824;10.102;2023-02-13T05:36:52;26.50;;;13.02;;
62258;SDS011;48241;48.824;10.102;2023-02-13T05:39:19;29.40;;;14.27;;
62258;SDS011;48241;48.824;10.102;2023-02-13T05:41:45;26.38;;;13.00;;
62258;SDS011;48241;48.824;10.102;2023-02-13T05:44:11;23.08;;;12.23;;
62258;SDS011;48241;48.824;10.102;2023-02-13T05:46:38;27.00;;;12.38;;
62258;SDS011;48241;48.824;10.102;2023-02-13T05:49:05;22.13;;;11.23;;
62258;SDS011;48241;48.824;10.102;2023-02-13T05:51:31;29.67;;;14.57;;
62258;SDS011;48241;48.824;10.102;2023-02-13T05:53:57;27.85;;;14.02;;
62258;SDS011;48241;48.824;10.102;2023-02-13T05:56:22;32.50;;;15.60;;
62258;SDS011;48241;48.824;10.102;2023-02-13T05:58:52;28.13;;;13.45;;
62258;SDS011;48241;48.824;10.102;2023-02-13T06:01:18;23.30;;;12.93;;
62258;SDS011;48241;48.824;10.102;2023-02-13T06:03:44;28.95;;;14.55;;
62258;SDS011;48241;48.824;10.102;2023-02-13T06:06:14;30.65;;;14.70;;
62258;SDS011;48241;48.824;10.102;2023-02-13T06:08:40;27.48;;;14.25;;
62258;SDS011;48241;48.824;10.102;2023-02-13T06:11:05;30.95;;;15.00;;
62258;SDS011;48241;48.824;10.102;2023-02-13T06:13:31;25.83;;;13.00;;
62258;SDS011;48241;48.824;10.102;2023-02-13T06:15:57;24.67;;;13.45;;
62258;SDS011;48241;48.824;10.102;2023-02-13T06:18:23;24.65;;;12.68;;
62258;SDS011;48241;48.824;10.102;2023-02-13T06:20:48;25.27;;;13.57;;
62258;SDS011;48241;48.824;10.102;2023-02-13T06:23:33;24.80;;;12.32;;
62258;SDS011;48241;48.824;10.102;2023-02-13T06:26:08;23.02;;;10.15;;
62258;SDS011;48241;48.824;10.102;2023-02-13T06:28:34;27.52;;;13.60;;
62258;SDS011;48241;48.824;10.102;2023-02-13T06:31:00;22.73;;;12.38;;
62258;SDS011;48241;48.824;10.102;2023-02-13T06:33:26;28.20;;;12.98;;
62258;SDS011;48241;48.824;10.102;2023-02-13T06:35:52;24.92;;;12.52;;
62258;SDS011;48241;48.824;10.102;2023-02-13T06:38:24;23.83;;;13.75;;
62258;SDS011;48241;48.824;10.102;2023-02-13T06:40:50;27.35;;;14.23;;
62258;SDS011;48241;48.824;10.102;2023-02-13T06:43:21;30.73;;;15.07;;
62258;SDS011;48241;48.824;10.102;2023-02-13T06:45:57;23.92;;;11.63;;
62258;SDS011;48241;48.824;10.102;2023-02-13T08:37:13;16.52;;;10.63;;
62258;SDS011;48241;48.824;10.102;2023-02-13T08:39:39;17.60;;;11.00;;
62258;SDS011;48241;48.824;10.102;2023-02-13T08:42:04;17.55;;;11.07;;
62258;SDS011;48241;48.824;10.102;2023-02-13T08:44:30;17.83;;;11.18;;
62258;SDS011;48241;48.824;10.102;2023-02-13T08:46:56;19.08;;;10.98;;
62258;SDS011;48241;48.824;10.102;2023-02-13T08:49:21;18.70;;;11.32;;
62258;SDS011;48241;48.824;10.102;2023-02-13T08:51:47;18.95;;;11.18;;
62258;SDS011;48241;48.824;10.102;2023-02-13T08:54:15;17.70;;;11.00;;
62258;SDS011;48241;48.824;10.102;2023-02-13T08:56:41;19.08;;;11.10;;
62258;SDS011;48241;48.824;10.102;2023-02-13T08:59:07;19.65;;;12.13;;
62258;SDS011;48241;48.824;10.102;2023-02-13T09:01:34;18.13;;;11.40;;
62258;SDS011;48241;48.824;10.102;2023-02-13T09:03:59;16.63;;;10.80;;
62258;SDS011;48241;48.824;10.102;2023-02-13T09:06:25;19.10;;;10.40;;
62258;SDS011;48241;48.824;10.102;2023-02-13T09:08:52;16.60;;;9.50;;
62258;SDS011;48241;48.824;10.102;2023-02-13T09:11:17;15.02;;;9.50;;
62258;SDS011;48241;48.824;10.102;2023-02-13T09:13:43;13.38;;;8.75;;
62258;SDS011;48241;48.824;10.102;2023-02-13T09:16:09;15.88;;;9.40;;
62258;SDS011;48241;48.824;10.102;2023-02-13T09:18:35;11.10;;;7.30;;
62258;SDS011;48241;48.824;10.102;2023-02-13T09:21:02;11.68;;;8.43;;
62258;SDS011;48241;48.824;10.102;2023-02-13T09:23:30;12.10;;;7.75;;
62258;SDS011;48241;48.824;10.102;2023-02-13T09:26:01;11.35;;;7.95;;
62258;SDS011;48241;48.824;10.102;2023-02-13T09:28:28;9.25;;;6.97;;
62258;SDS011;48241;48.824;10.102;2023-02-13T09:30:54;10.68;;;7.18;;
62258;SDS011;48241;48.824;10.102;2023-02-13T09:33:20;11.90;;;6.85;;
62258;SDS011;48241;48.824;10.102;2023-02-13T09:35:46;9.02;;;6.18;;
62258;SDS011;48241;48.824;10.102;2023-02-13T09:38:12;9.63;;;7.00;;
62258;SDS011;48241;48.824;10.102;2023-02-13T09:43:26;9.52;;;6.78;;
62258;SDS011;48241;48.824;10.102;2023-02-13T09:45:57;9.45;;;6.40;;
62258;SDS011;48241;48.824;10.102;2023-02-13T09:48:29;8.10;;;5.93;;
62258;SDS011;48241;48.824;10.102;2023-02-13T09:50:58;8.10;;;5.88;;
62258;SDS011;48241;48.824;10.102;2023-02-13T09:53:25;7.68;;;5.93;;
62258;SDS011;48241;48.824;10.102;2023-02-13T09:59:44;9.27;;;5.55;;
62258;SDS011;48241;48.824;10.102;2023-02-13T10:01:59;8.40;;;5.93;;
62258;SDS011;48241;48.824;10.102;2023-02-13T10:04:40;9.55;;;6.47;;
62258;SDS011;48241;48.824;10.102;2023-02-13T10:10:01;8.80;;;5.95;;
62258;SDS011;48241;48.824;10.102;2023-02-13T10:13:00;9.32;;;6.65;;
62258;SDS011;48241;48.824;10.102;2023-02-13T10:20:53;12.20;;;7.30;;
62258;SDS011;48241;48.824;10.102;2023-02-13T10:23:41;11.75;;;7.35;;
62258;SDS011;48241;48.824;10.102;2023-02-13T10:26:16;10.48;;;7.28;;
62258;SDS011;48241;48.824;10.102;2023-02-13T10:29:05;10.15;;;7.32;;
62258;SDS011;48241;48.824;10.102;2023-02-13T10:32:10;11.57;;;7.57;;
62258;SDS011;48241;48.824;10.102;2023-02-13T10:34:42;11.18;;;8.00;;
62258;SDS011;48241;48.824;10.102;2023-02-13T10:37:14;13.45;;;7.93;;
62258;SDS011;48241;48.824;10.102;2023-02-13T10:39:43;10.90;;;7.47;;
62258;SDS011;48241;48.824;10.102;2023-02-13T10:42:27;10.73;;;7.97;;
62258;SDS011;48241;48.824;10.102;2023-02-13T10:50:45;11.25;;;8.25;;
62258;SDS011;48241;48.824;10.102;2023-02-13T10:53:26;12.35;;;8.63;;
62258;SDS011;48241;48.824;10.102;2023-02-13T10:56:13;15.35;;;8.88;;
62258;SDS011;48241;48.824;10.102;2023-02-13T11:04:27;11.85;;;7.88;;
62258;SDS011;48241;48.824;10.102;2023-02-13T11:06:57;11.25;;;7.45;;
62258;SDS011;48241;48.824;10.102;2023-02-13T11:09:25;9.20;;;6.32;;
62258;SDS011;48241;48.824;10.102;2023-02-13T11:11:52;11.60;;;7.93;;
62258;SDS011;48241;48.824;10.102;2023-02-13T11:14:22;11.48;;;7.65;;
62258;SDS011;48241;48.824;10.102;2023-02-13T11:17:02;15.25;;;8.70;;
62258;SDS011;48241;48.824;10.102;2023-02-13T11:19:31;12.48;;;8.00;;
62258;SDS011;48241;48.824;10.102;2023-02-13T11:22:02;14.43;;;9.00;;
62258;SDS011;48241;48.824;10.102;2023-02-13T11:24:34;13.02;;;8.02;;
62258;SDS011;48241;48.824;10.102;2023-02-13T11:27:02;12.50;;;7.38;;
62258;SDS011;48241;48.824;10.102;2023-02-13T11:29:33;11.55;;;7.40;;
62258;SDS011;48241;48.824;10.102;2023-02-13T11:32:01;10.55;;;7.65;;
62258;SDS011;48241;48.824;10.102;2023-02-13T11:34:41;10.63;;;6.93;;
62258;SDS011;48241;48.824;10.102;2023-02-13T11:37:17;12.38;;;7.38;;
62258;SDS011;48241;48.824;10.102;2023-02-13T11:39:54;10.30;;;6.78;;
62258;SDS011;48241;48.824;10.102;2023-02-13T11:42:26;12.02;;;7.40;;
62258;SDS011;48241;48.824;10.102;2023-02-13T11:45:21;10.75;;;7.45;;
62258;SDS011;48241;48.824;10.102;2023-02-13T11:47:48;10.68;;;7.20;;
62258;SDS011;48241;48.824;10.102;2023-02-13T11:50:22;11.80;;;8.00;;
62258;SDS011;48241;48.824;10.102;2023-02-13T11:58:36;11.80;;;7.15;;
62258;SDS011;48241;48.824;10.102;2023-02-13T12:01:45;10.98;;;7.05;;
62258;SDS011;48241;48.824;10.102;2023-02-13T12:04:04;13.93;;;7.10;;
62258;SDS011;48241;48.824;10.102;2023-02-13T12:06:56;10.68;;;7.50;;
62258;SDS011;48241;48.824;10.102;2023-02-13T12:09:26;14.23;;;7.60;;
62258;SDS011;48241;48.824;10.102;2023-02-13T12:11:54;12.18;;;8.32;;
62258;SDS011;48241;48.824;10.102;2023-02-13T12:14:26;12.25;;;7.88;;
62258;SDS011;48241;48.824;10.102;2023-02-13T12:17:04;13.60;;;7.82;;
62258;SDS011;48241;48.824;10.102;2023-02-13T12:19:40;11.25;;;7.60;;
62258;SDS011;48241;48.824;10.102;2023-02-13T12:24:56;12.52;;;7.93;;
62258;SDS011;48241;48.824;10.102;2023-02-13T12:30:32;14.32;;;8.18;;
62258;SDS011;48241;48.824;10.102;2023-02-13T12:36:09;14.82;;;8.85;;
62258;SDS011;48241;48.824;10.102;2023-02-13T12:39:04;13.48;;;8.70;;
62258;SDS011;48241;48.824;10.102;2023-02-13T12:41:39;15.80;;;8.90;;
62258;SDS011;48241;48.824;10.102;2023-02-13T12:47:09;15.38;;;9.70;;
62258;SDS011;48241;48.824;10.102;2023-02-13T12:52:35;15.65;;;9.77;;
62258;SDS011;48241;48.824;10.102;2023-02-13T12:58:39;13.98;;;8.00;;
62258;SDS011;48241;48.824;10.102;2023-02-13T13:01:19;14.35;;;9.15;;
62258;SDS011;48241;48.824;10.102;2023-02-13T13:17:43;14.10;;;8.90;;
62258;SDS011;48241;48.824;10.102;2023-02-13T13:28:56;14.00;;;8.90;;
62258;SDS011;48241;48.824;10.102;2023-02-13T13:31:23;14.80;;;9.90;;
62258;SDS011;48241;48.824;10.102;2023-02-13T13:33:52;13.82;;;9.45;;
62258;SDS011;48241;48.824;10.102;2023-02-13T13:42:10;15.88;;;9.80;;
62258;SDS011;48241;48.824;10.102;2023-02-13T13:50:02;16.77;;;8.98;;
62258;SDS011;48241;48.824;10.102;2023-02-13T13:52:31;15.02;;;9.55;;
62258;SDS011;48241;48.824;10.102;2023-02-13T13:55:03;16.42;;;9.20;;
62258;SDS011;48241;48.824;10.102;2023-02-13T14:02:43;15.38;;;9.77;;
62258;SDS011;48241;48.824;10.102;2023-02-13T14:07:49;15.88;;;9.88;;
62258;SDS011;48241;48.824;10.102;2023-02-13T14:13:05;16.15;;;10.02;;
62258;SDS011;48241;48.824;10.102;2023-02-13T14:36:41;16.08;;;10.60;;
62258;SDS011;48241;48.824;10.102;2023-02-13T14:41:57;16.52;;;10.23;;
62258;SDS011;48241;48.824;10.102;2023-02-13T14:44:39;16.58;;;11.07;;
62258;SDS011;48241;48.824;10.102;2023-02-13T14:49:45;17.23;;;10.95;;
62258;SDS011;48241;48.824;10.102;2023-02-13T14:52:36;16.73;;;10.00;;
62258;SDS011;48241;48.824;10.102;2023-02-13T15:00:04;18.70;;;11.85;;
62258;SDS011;48241;48.824;10.102;2023-02-13T15:02:41;19.40;;;11.93;;
62258;SDS011;48241;48.824;10.102;2023-02-13T15:05:12;18.60;;;10.75;;
62258;SDS011;48241;48.824;10.102;2023-02-13T15:07:41;18.02;;;9.98;;
62258;SDS011;48241;48.824;10.102;2023-02-13T15:13:15;18.08;;;11.15;;
62258;SDS011;48241;48.824;10.102;2023-02-13T15:15:42;19.23;;;11.20;;
62258;SDS011;48241;48.824;10.102;2023-02-13T15:18:18;20.15;;;11.65;;
62258;SDS011;48241;48.824;10.102;2023-02-13T15:20:53;23.15;;;12.85;;
62258;SDS011;48241;48.824;10.102;2023-02-13T15:23:25;17.27;;;10.90;;
62258;SDS011;48241;48.824;10.102;2023-02-13T15:26:01;22.13;;;12.75;;
62258;SDS011;48241;48.824;10.102;2023-02-13T15:28:31;21.70;;;12.20;;
62258;SDS011;48241;48.824;10.102;2023-02-13T15:30:58;19.90;;;11.25;;
62258;SDS011;48241;48.824;10.102;2023-02-13T15:33:48;20.83;;;12.85;;
62258;SDS011;48241;48.824;10.102;2023-02-13T15:36:17;20.83;;;12.90;;
62258;SDS011;48241;48.824;10.102;2023-02-13T15:38:45;22.05;;;12.77;;
62258;SDS011;48241;48.824;10.102;2023-02-13T15:41:21;21.40;;;12.48;;
62258;SDS011;48241;48.824;10.102;2023-02-13T15:43:52;20.23;;;11.93;;
62258;SDS011;48241;48.824;10.102;2023-02-13T15:46:26;24.15;;;13.57;;
62258;SDS011;48241;48.824;10.102;2023-02-13T15:48:57;18.92;;;10.80;;
62258;SDS011;48241;48.824;10.102;2023-02-13T15:51:26;22.27;;;11.73;;
62258;SDS011;48241;48.824;10.102;2023-02-13T15:56:21;25.88;;;12.32;;
62258;SDS011;48241;48.824;10.102;2023-02-13T15:58:47;20.85;;;11.63;;
62258;SDS011;48241;48.824;10.102;2023-02-13T16:01:14;18.75;;;11.77;;
62258;SDS011;48241;48.824;10.102;2023-02-13T16:03:41;20.23;;;12.82;;
62258;SDS011;48241;48.824;10.102;2023-02-13T16:06:13;20.30;;;11.50;;
62258;SDS011;48241;48.824;10.102;2023-02-13T16:08:44;21.65;;;12.25;;
62258;SDS011;48241;48.824;10.102;2023-02-13T16:11:17;20.25;;;11.30;;
62258;SDS011;48241;48.824;10.102;2023-02-13T16:17:02;22.20;;;12.82;;
62258;SDS011;48241;48.824;10.102;2023-02-13T16:22:20;24.52;;;13.20;;
62258;SDS011;48241;48.824;10.102;2023-02-13T16:24:48;24.42;;;12.60;;
62258;SDS011;48241;48.824;10.102;2023-02-13T16:27:16;24.05;;;14.13;;
62258;SDS011;48241;48.824;10.102;2023-02-13T16:29:47;24.45;;;13.98;;
62258;SDS011;48241;48.824;10.102;2023-02-13T16:32:31;30.35;;;15.38;;
62258;SDS011;48241;48.824;10.102;2023-02-13T16:35:14;24.15;;;13.27;;
62258;SDS011;48241;48.824;10.102;2023-02-13T16:37:47;26.77;;;14.20;;
62258;SDS011;48241;48.824;10.102;2023-02-13T16:40:31;26.65;;;14.95;;
62258;SDS011;48241;48.824;10.102;2023-02-13T16:51:23;22.73;;;12.40;;
62258;SDS011;48241;48.824;10.102;2023-02-13T16:53:56;26.58;;;14.60;;
62258;SDS011;48241;48.824;10.102;2023-02-13T16:56:23;25.67;;;14.48;;
62258;SDS011;48241;48.824;10.102;2023-02-13T16:58:48;25.02;;;14.02;;
62258;SDS011;48241;48.824;10.102;2023-02-13T17:01:14;26.17;;;16.17;;
62258;SDS011;48241;48.824;10.102;2023-02-13T17:03:42;23.88;;;14.15;;
62258;SDS011;48241;48.824;10.102;2023-02-13T17:06:07;24.40;;;13.40;;
62258;SDS011;48241;48.824;10.102;2023-02-13T17:08:34;26.38;;;14.63;;
62258;SDS011;48241;48.824;10.102;2023-02-13T17:11:05;22.20;;;13.43;;
62258;SDS011;48241;48.824;10.102;2023-02-13T17:13:32;23.52;;;14.35;;
62258;SDS011;48241;48.824;10.102;2023-02-13T17:15:58;26.65;;;15.68;;
62258;SDS011;48241;48.824;10.102;2023-02-13T17:18:24;24.98;;;14.45;;
62258;SDS011;48241;48.824;10.102;2023-02-13T17:20:50;26.55;;;14.85;;
62258;SDS011;48241;48.824;10.102;2023-02-13T17:23:17;26.17;;;15.77;;
62258;SDS011;48241;48.824;10.102;2023-02-13T17:25:46;26.25;;;14.70;;
62258;SDS011;48241;48.824;10.102;2023-02-13T17:28:14;30.27;;;17.55;;
62258;SDS011;48241;48.824;10.102;2023-02-13T17:30:42;26.17;;;13.75;;
62258;SDS011;48241;48.824;10.102;2023-02-13T17:33:12;24.30;;;14.32;;
62258;SDS011;48241;48.824;10.102;2023-02-13T17:35:43;26.05;;;15.02;;
62258;SDS011;48241;48.824;10.102;2023-02-13T17:38:09;26.58;;;14.52;;
62258;SDS011;48241;48.824;10.102;2023-02-13T17:40:55;27.30;;;15.50;;
62258;SDS011;48241;48.824;10.102;2023-02-13T17:43:20;30.08;;;15.90;;
62258;SDS011;48241;48.824;10.102;2023-02-13T17:45:47;27.38;;;15.52;;
62258;SDS011;48241;48.824;10.102;2023-02-13T17:48:13;27.40;;;15.65;;
62258;SDS011;48241;48.824;10.102;2023-02-13T17:50:42;31.52;;;16.45;;
62258;SDS011;48241;48.824;10.102;2023-02-13T17:53:22;27.83;;;14.75;;
62258;SDS011;48241;48.824;10.102;2023-02-13T17:55:53;26.88;;;14.63;;
62258;SDS011;48241;48.824;10.102;2023-02-13T17:58:19;23.13;;;13.00;;
62258;SDS011;48241;48.824;10.102;2023-02-13T18:00:45;27.60;;;15.40;;
62258;SDS011;48241;48.824;10.102;2023-02-13T18:03:11;27.60;;;15.98;;
62258;SDS011;48241;48.824;10.102;2023-02-13T18:05:37;25.98;;;14.85;;
62258;SDS011;48241;48.824;10.102;2023-02-13T18:08:05;26.70;;;13.82;;
62258;SDS011;48241;48.824;10.102;2023-02-13T18:10:32;31.77;;;16.88;;
62258;SDS011;48241;48.824;10.102;2023-02-13T18:13:00;27.08;;;13.07;;
62258;SDS011;48241;48.824;10.102;2023-02-13T18:15:29;27.05;;;14.43;;
62258;SDS011;48241;48.824;10.102;2023-02-13T18:18:07;27.02;;;15.52;;
62258;SDS011;48241;48.824;10.102;2023-02-13T18:20:34;23.92;;;14.07;;
62258;SDS011;48241;48.824;10.102;2023-02-13T18:23:06;28.55;;;14.93;;
62258;SDS011;48241;48.824;10.102;2023-02-13T18:25:34;29.42;;;17.60;;
62258;SDS011;48241;48.824;10.102;2023-02-13T18:28:00;29.98;;;16.55;;
62258;SDS011;48241;48.824;10.102;2023-02-13T18:30:28;30.92;;;15.13;;
62258;SDS011;48241;48.824;10.102;2023-02-13T18:32:57;32.45;;;16.48;;
62258;SDS011;48241;48.824;10.102;2023-02-13T18:35:23;33.10;;;16.45;;
62258;SDS011;48241;48.824;10.102;2023-02-13T18:37:49;29.48;;;16.58;;
62258;SDS011;48241;48.824;10.102;2023-02-13T18:40:18;35.88;;;16.98;;
62258;SDS011;48241;48.824;10.102;2023-02-13T18:42:43;29.30;;;15.75;;
62258;SDS011;48241;48.824;10.102;2023-02-13T18:45:12;33.40;;;17.80;;
62258;SDS011;48241;48.824;10.102;2023-02-13T18:47:38;30.90;;;16.08;;
62258;SDS011;48241;48.824;10.102;2023-02-13T18:50:03;32.85;;;17.40;;
62258;SDS011;48241;48.824;10.102;2023-02-13T18:52:32;30.77;;;18.02;;
62258;SDS011;48241;48.824;10.102;2023-02-13T18:54:59;31.65;;;16.77;;
62258;SDS011;48241;48.824;10.102;2023-02-13T18:57:24;34.90;;;17.25;;
62258;SDS011;48241;48.824;10.102;2023-02-13T18:59:50;34.78;;;18.73;;
62258;SDS011;48241;48.824;10.102;2023-02-13T19:02:15;30.15;;;14.90;;
62258;SDS011;48241;48.824;10.102;2023-02-13T19:04:41;30.35;;;16.00;;
62258;SDS011;48241;48.824;10.102;2023-02-13T19:07:07;33.80;;;17.25;;
62258;SDS011;48241;48.824;10.102;2023-02-13T19:09:32;35.28;;;19.27;;
62258;SDS011;48241;48.824;10.102;2023-02-13T19:12:03;37.85;;;18.52;;
62258;SDS011;48241;48.824;10.102;2023-02-13T19:14:30;34.38;;;16.45;;
62258;SDS011;48241;48.824;10.102;2023-02-13T19:16:55;32.35;;;17.75;;
62258;SDS011;48241;48.824;10.102;2023-02-13T19:19:21;34.70;;;18.67;;
62258;SDS011;48241;48.824;10.102;2023-02-13T19:21:46;38.67;;;18.63;;
62258;SDS011;48241;48.824;10.102;2023-02-13T19:24:12;33.03;;;16.63;;
62258;SDS011;48241;48.824;10.102;2023-02-13T19:26:39;34.30;;;18.05;;
62258;SDS011;48241;48.824;10.102;2023-02-13T19:29:06;38.53;;;20.17;;
62258;SDS011;48241;48.824;10.102;2023-02-13T19:31:32;39.20;;;20.60;;
62258;SDS011;48241;48.824;10.102;2023-02-13T19:33:58;37.90;;;19.60;;
62258;SDS011;48241;48.824;10.102;2023-02-13T19:36:28;34.88;;;17.60;;
62258;SDS011;48241;48.824;10.102;2023-02-13T19:38:55;35.08;;;18.45;;
62258;SDS011;48241;48.824;10.102;2023-02-13T19:41:22;32.80;;;17.70;;
62258;SDS011;48241;48.824;10.102;2023-02-13T19:43:48;32.67;;;17.00;;
62258;SDS011;48241;48.824;10.102;2023-02-13T19:46:21;33.35;;;17.27;;
62258;SDS011;48241;48.824;10.102;2023-02-13T19:48:48;34.40;;;18.25;;
62258;SDS011;48241;48.824;10.102;2023-02-13T19:51:16;37.33;;;18.38;;
62258;SDS011;48241;48.824;10.102;2023-02-13T19:53:44;33.92;;;17.48;;
62258;SDS011;48241;48.824;10.102;2023-02-13T19:56:10;34.40;;;18.65;;
62258;SDS011;48241;48.824;10.102;2023-02-13T19:58:36;36.83;;;19.33;;
62258;SDS011;48241;48.824;10.102;2023-02-13T20:01:07;32.92;;;18.15;;
62258;SDS011;48241;48.824;10.102;2023-02-13T20:03:40;37.22;;;20.42;;
62258;SDS011;48241;48.824;10.102;2023-02-13T20:06:16;35.67;;;18.50;;
62258;SDS011;48241;48.824;10.102;2023-02-13T20:08:44;31.07;;;16.30;;
62258;SDS011;48241;48.824;10.102;2023-02-13T20:11:10;34.50;;;16.75;;
62258;SDS011;48241;48.824;10.102;2023-02-13T20:13:38;33.22;;;17.42;;
62258;SDS011;48241;48.824;10.102;2023-02-13T20:16:04;34.58;;;18.20;;
62258;SDS011;48241;48.824;10.102;2023-02-13T20:18:32;32.83;;;18.02;;
62258;SDS011;48241;48.824;10.102;2023-02-13T20:20:58;40.17;;;17.52;;
62258;SDS011;48241;48.824;10.102;2023-02-13T20:23:23;31.80;;;17.42;;
62258;SDS011;48241;48.824;10.102;2023-02-13T20:25:49;40.70;;;17.77;;
62258;SDS011;48241;48.824;10.102;2023-02-13T20:28:15;33.55;;;17.95;;
62258;SDS011;48241;48.824;10.102;2023-02-13T20:30:41;35.65;;;17.08;;
62258;SDS011;48241;48.824;10.102;2023-02-13T20:33:07;37.10;;;18.45;;
62258;SDS011;48241;48.824;10.102;2023-02-13T20:35:33;32.17;;;16.05;;
62258;SDS011;48241;48.824;10.102;2023-02-13T20:37:58;37.33;;;18.35;;
62258;SDS011;48241;48.824;10.102;2023-02-13T20:40:24;33.28;;;17.58;;
62258;SDS011;48241;48.824;10.102;2023-02-13T20:42:50;34.22;;;18.63;;
62258;SDS011;48241;48.824;10.102;2023-02-13T20:45:16;31.92;;;15.98;;
62258;SDS011;48241;48.824;10.102;2023-02-13T20:47:42;33.55;;;18.70;;
62258;SDS011;48241;48.824;10.102;2023-02-13T21:16:38;35.10;;;18.25;;
62258;SDS011;48241;48.824;10.102;2023-02-13T21:19:14;37.33;;;18.25;;
62258;SDS011;48241;48.824;10.102;2023-02-13T21:22:07;46.75;;;20.75;;
62258;SDS011;48241;48.824;10.102;2023-02-13T21:24:48;47.45;;;21.45;;
62258;SDS011;48241;48.824;10.102;2023-02-13T21:27:17;45.25;;;20.50;;
62258;SDS011;48241;48.824;10.102;2023-02-13T21:29:49;36.23;;;18.57;;
62258;SDS011;48241;48.824;10.102;2023-02-13T21:32:17;40.40;;;18.65;;
62258;SDS011;48241;48.824;10.102;2023-02-13T21:34:47;39.72;;;19.00;;
62258;SDS011;48241;48.824;10.102;2023-02-13T21:37:12;37.08;;;17.70;;
62258;SDS011;48241;48.824;10.102;2023-02-13T21:39:38;42.55;;;19.98;;
62258;SDS011;48241;48.824;10.102;2023-02-13T21:42:04;42.38;;;19.55;;
62258;SDS011;48241;48.824;10.102;2023-02-13T21:44:29;38.72;;;16.98;;
62258;SDS011;48241;48.824;10.102;2023-02-13T21:46:55;40.05;;;18.73;;
62258;SDS011;48241;48.824;10.102;2023-02-13T21:49:21;46.65;;;20.77;;
62258;SDS011;48241;48.824;10.102;2023-02-13T21:51:48;40.13;;;19.40;;
62258;SDS011;48241;48.824;10.102;2023-02-13T21:54:17;40.83;;;19.02;;
62258;SDS011;48241;48.824;10.102;2023-02-13T21:56:42;43.80;;;19.67;;
62258;SDS011;48241;48.824;10.102;2023-02-13T21:59:09;38.83;;;18.65;;
62258;SDS011;48241;48.824;10.102;2023-02-13T22:01:41;43.15;;;19.30;;
62258;SDS011;48241;48.824;10.102;2023-02-13T22:04:07;43.33;;;19.67;;
62258;SDS011;48241;48.824;10.102;2023-02-13T22:06:34;42.10;;;19.48;;
62258;SDS011;48241;48.824;10.102;2023-02-13T22:09:06;41.28;;;20.73;;
62258;SDS011;48241;48.824;10.102;2023-02-13T22:11:34;39.05;;;18.95;;
62258;SDS011;48241;48.824;10.102;2023-02-13T22:14:02;36.13;;;17.17;;
62258;SDS011;48241;48.824;10.102;2023-02-13T22:16:29;43.55;;;19.27;;
62258;SDS011;48241;48.824;10.102;2023-02-13T22:18:56;40.58;;;17.77;;
62258;SDS011;48241;48.824;10.102;2023-02-13T22:21:23;36.72;;;18.02;;
62258;SDS011;48241;48.824;10.102;2023-02-13T22:23:50;40.58;;;19.48;;
62258;SDS011;48241;48.824;10.102;2023-02-13T22:26:17;36.22;;;17.25;;
62258;SDS011;48241;48.824;10.102;2023-02-13T22:28:43;33.10;;;15.27;;
62258;SDS011;48241;48.824;10.102;2023-02-13T22:31:09;39.53;;;18.10;;
62258;SDS011;48241;48.824;10.102;2023-02-13T22:33:35;35.63;;;16.77;;
62258;SDS011;48241;48.824;10.102;2023-02-13T22:36:01;43.70;;;18.67;;
62258;SDS011;48241;48.824;10.102;2023-02-13T22:38:27;41.33;;;19.27;;
62258;SDS011;48241;48.824;10.102;2023-02-13T22:40:55;40.25;;;19.20;;
62258;SDS011;48241;48.824;10.102;2023-02-13T22:43:20;43.05;;;19.75;;
62258;SDS011;48241;48.824;10.102;2023-02-13T22:45:46;39.80;;;17.50;;
62258;SDS011;48241;48.824;10.102;2023-02-13T22:48:11;40.97;;;19.13;;
62258;SDS011;48241;48.824;10.102;2023-02-13T22:50:37;41.80;;;19.10;;
62258;SDS011;48241;48.824;10.102;2023-02-13T22:53:02;41.20;;;18.80;;
62258;SDS011;48241;48.824;10.102;2023-02-13T22:55:28;43.63;;;19.85;;
62258;SDS011;48241;48.824;10.102;2023-02-13T22:57:54;42.30;;;19.80;;
62258;SDS011;48241;48.824;10.102;2023-02-13T23:00:20;42.75;;;20.38;;